St Pierre — FIDX — position and weather

sailwx.info

Track history (hours):
 
Tides and Currents Weather Stations Pressure Air Temp Water Temp Dewpoint Dewpoint Depression Visibility Wind Speed Wind Dir Waves Ship Positions

St Pierre

Last reported at 2017-Feb-26 10:34 UTC. Time now 2017-Feb-26 10:34 UTC.
Position N 47°12' W 001°37'.

Length 84 m; draft 4.5 m.

Type: Cargo ship. MMSI: 228024800.

Date/timePositionNaut miles runAvg speedWind from/ knotsBaromVisibWave heightAir tempDewpointWater temp
2017-Feb-26 10:34N 47°12' W 001°37'0 0.0
2017-Feb-26 09:34N 47°12' W 001°37'0 0.0
2017-Feb-26 08:33N 47°12' W 001°37'0 0.0
2017-Feb-26 07:33N 47°12' W 001°37'0 0.0
2017-Feb-26 06:34N 47°12' W 001°37'0 0.0
2017-Feb-26 05:33N 47°12' W 001°37'0 0.0
2017-Feb-26 04:33N 47°12' W 001°37'0 0.0
2017-Feb-26 03:32N 47°12' W 001°37'0 0.0
2017-Feb-26 02:34N 47°12' W 001°37'0 0.0
2017-Feb-26 01:34N 47°12' W 001°37'0 0.0
2017-Feb-26 00:34N 47°12' W 001°37'0 0.0
2017-Feb-25 23:34N 47°12' W 001°37'0 0.0
2017-Feb-25 22:33N 47°12' W 001°37'0 0.0
2017-Feb-25 21:34N 47°12' W 001°37'0 0.0
2017-Feb-25 20:34N 47°12' W 001°37'0 0.0
2017-Feb-25 19:33N 47°12' W 001°37'1 0.8
2017-Feb-25 18:34N 47°12' W 001°38'0 0.0
2017-Feb-25 17:33N 47°12' W 001°38'0 0.1
2017-Feb-25 16:33N 47°12' W 001°38'1010.2
2017-Feb-25 15:34N 47°16' W 001°52'1111.4
2017-Feb-25 14:34N 47°18' W 002°08'1212.4
2017-Feb-25 13:33N 47°08' W 002°20'4 3.7
2017-Feb-25 12:33N 47°05' W 002°21'0 0.4
2017-Feb-25 11:33N 47°05' W 002°22'0 0.4
2017-Feb-25 10:33N 47°05' W 002°21'0 0.3
2017-Feb-25 09:33N 47°05' W 002°22'8 8.5
2017-Feb-25 08:33N 47°13' W 002°17'1312.7
2017-Feb-25 07:34N 47°17' W 001°59'1413.8
2017-Feb-25 06:33N 47°12' W 001°40'2 1.8
2017-Feb-25 05:33N 47°12' W 001°38'0 0.0
2017-Feb-25 04:33N 47°12' W 001°38'0 0.0
2017-Feb-25 03:33N 47°12' W 001°38'8 8.2
2017-Feb-25 02:33N 47°14' W 001°50'1010.6
2017-Feb-25 01:33N 47°18' W 002°04'1211.6
2017-Feb-25 00:33N 47°11' W 002°18'7 6.7
2017-Feb-24 23:33N 47°06' W 002°22'0 0.3
2017-Feb-24 22:33N 47°06' W 002°22'4 3.9
2017-Feb-24 21:33N 47°07' W 002°28'1312.7
2017-Feb-24 20:33N 47°14' W 002°43'1313.1
2017-Feb-24 19:33N 47°20' W 002°60'1212.4
2017-Feb-24 18:33N 47°29' W 003°13'1313.4
2017-Feb-24 17:33N 47°41' W 003°22'4 4.4
2017-Feb-24 16:33N 47°45' W 003°19'0 0.0
2017-Feb-24 15:33N 47°45' W 003°19'0 0.0
2017-Feb-24 14:33N 47°45' W 003°19'3 3.3
2017-Feb-24 13:33N 47°42' W 003°22'3 2.6
2017-Feb-24 12:33N 47°40' W 003°25'0 0.0
2017-Feb-24 11:33N 47°40' W 003°25'0 0.0
2017-Feb-24 10:33N 47°40' W 003°25'0 0.0
2017-Feb-24 09:33N 47°40' W 003°25'0 0.0
2017-Feb-24 08:33N 47°40' W 003°25'0 0.0
2017-Feb-24 07:33N 47°40' W 003°25'6 6.4
2017-Feb-24 06:33N 47°35' W 003°19'10 9.5
2017-Feb-24 05:33N 47°27' W 003°12'9 9.4
2017-Feb-24 04:33N 47°21' W 003°02'9 8.8
2017-Feb-24 03:33N 47°17' W 002°50'9 8.5
2017-Feb-24 02:33N 47°12' W 002°39'8 8.4
2017-Feb-24 01:33N 47°08' W 002°29'6 5.6
2017-Feb-24 00:33N 47°05' W 002°22'0 0.2
2017-Feb-23 23:33N 47°05' W 002°22'0 0.2
2017-Feb-23 22:33N 47°05' W 002°21'0 0.0
2017-Feb-23 21:33N 47°05' W 002°21'1 0.9
2017-Feb-23 20:33N 47°06' W 002°22'1110.8
2017-Feb-23 19:33N 47°15' W 002°14'1110.9
2017-Feb-23 18:33N 47°17' W 001°58'15 4.8
2017-Feb-23 15:31N 47°12' W 001°38'4 3.7
2017-Feb-23 14:33N 47°12' W 001°43'1010.2
2017-Feb-23 13:33N 47°17' W 001°56'1110.7
2017-Feb-23 12:33N 47°16' W 002°12'1212.2
2017-Feb-23 11:33N 47°05' W 002°21'0 0.4
2017-Feb-23 10:31N 47°05' W 002°22'0 0.1
2017-Feb-23 09:34N 47°05' W 002°22'1 0.6
2017-Feb-23 08:33N 47°05' W 002°21'1 0.6
2017-Feb-23 07:33N 47°05' W 002°22'1211.7
2017-Feb-23 06:33N 47°15' W 002°13'1211.8
2017-Feb-23 05:33N 47°17' W 001°56'1312.7
2017-Feb-23 04:33N 47°11' W 001°39'1 0.6
2017-Feb-23 03:33N 47°12' W 001°38'0 0.0
2017-Feb-23 02:33N 47°12' W 001°38'5 4.8
2017-Feb-23 01:33N 47°12' W 001°45'1110.8
2017-Feb-23 00:33N 47°17' W 001°59'1110.7
2017-Feb-22 23:33N 47°15' W 002°14'1110.8
2017-Feb-22 22:33N 47°05' W 002°22'0 0.3
2017-Feb-22 21:33N 47°05' W 002°21'0 0.3
2017-Feb-22 20:33N 47°05' W 002°21'0 0.2
2017-Feb-22 19:33N 47°05' W 002°21'0 0.1
2017-Feb-22 18:33N 47°05' W 002°21'7 7.3
2017-Feb-22 17:33N 47°12' W 002°18'1110.7
2017-Feb-22 16:33N 47°18' W 002°05'1211.5
2017-Feb-22 15:33N 47°14' W 001°50'9 9.0
2017-Feb-22 14:34N 47°12' W 001°37'0 0.0
2017-Feb-22 13:33N 47°12' W 001°37'0 0.0
2017-Feb-22 12:33N 47°12' W 001°37'0 0.0
2017-Feb-22 11:33N 47°12' W 001°37'0 0.0
2017-Feb-22 10:33N 47°12' W 001°37'0 0.0
2017-Feb-22 09:33N 47°12' W 001°37'0 0.0
2017-Feb-22 08:33N 47°12' W 001°37'0 0.0
2017-Feb-22 07:33N 47°12' W 001°37'0 0.0
2017-Feb-22 06:33N 47°12' W 001°37'0 0.0
2017-Feb-22 05:33N 47°12' W 001°37'0 0.0
2017-Feb-22 04:33N 47°12' W 001°37'0 0.0
2017-Feb-22 03:33N 47°12' W 001°37'0 0.0
2017-Feb-22 02:33N 47°12' W 001°37'0 0.0
2017-Feb-22 01:33N 47°12' W 001°37'0 0.0
2017-Feb-22 00:33N 47°12' W 001°37'0 0.0
2017-Feb-21 23:33N 47°12' W 001°37'0 0.0
2017-Feb-21 22:33N 47°12' W 001°37'0 0.0
2017-Feb-21 21:33N 47°12' W 001°37'0 0.0
2017-Feb-21 20:33N 47°12' W 001°37'0 0.0
2017-Feb-21 19:33N 47°12' W 001°37'0 0.0
2017-Feb-21 18:33N 47°12' W 001°37'0 0.0
2017-Feb-21 17:33N 47°12' W 001°37'0 0.0
2017-Feb-21 16:33N 47°12' W 001°37'0 0.0
2017-Feb-21 15:33N 47°12' W 001°37'0 0.0
2017-Feb-21 14:33N 47°12' W 001°37'0 0.0
2017-Feb-21 13:33N 47°12' W 001°37'0 0.0
2017-Feb-21 12:33N 47°12' W 001°37'0 0.0
2017-Feb-21 11:33N 47°12' W 001°37'0 0.0
2017-Feb-21 10:33N 47°12' W 001°37'0 0.0
2017-Feb-21 09:33N 47°12' W 001°37'0 0.0
2017-Feb-21 08:33N 47°12' W 001°37'0 0.0
2017-Feb-21 07:33N 47°12' W 001°37'0 0.0
2017-Feb-21 06:33N 47°12' W 001°37'0 0.0
2017-Feb-21 05:33N 47°12' W 001°37'0 0.0
2017-Feb-21 04:33N 47°12' W 001°37'0 0.0
2017-Feb-21 03:33N 47°12' W 001°37'0 0.0
2017-Feb-21 02:33N 47°12' W 001°37'0 0.0
2017-Feb-21 01:33N 47°12' W 001°37'0 0.0
2017-Feb-21 00:33N 47°12' W 001°37'0 0.0
2017-Feb-20 23:33N 47°12' W 001°37'0 0.0
2017-Feb-20 22:33N 47°12' W 001°37'0 0.0
2017-Feb-20 21:33N 47°12' W 001°37'0 0.0
2017-Feb-20 20:33N 47°12' W 001°37'0 0.0
2017-Feb-20 19:33N 47°12' W 001°37'0 0.0
2017-Feb-20 18:33N 47°12' W 001°37'0 0.0
2017-Feb-20 17:33N 47°12' W 001°37'0 0.0
2017-Feb-20 16:33N 47°12' W 001°37'0 0.0
2017-Feb-20 15:33N 47°12' W 001°37'0 0.0
2017-Feb-20 14:33N 47°12' W 001°37'0 0.0
2017-Feb-20 13:33N 47°12' W 001°37'0 0.0
2017-Feb-20 12:33N 47°12' W 001°37'0 0.0
2017-Feb-20 11:33N 47°12' W 001°37'0 0.0
2017-Feb-20 10:33N 47°12' W 001°37'0 0.0
2017-Feb-20 09:33N 47°12' W 001°37'0 0.0
2017-Feb-20 08:33N 47°12' W 001°37'0 0.0
2017-Feb-20 07:33N 47°12' W 001°37'0 0.0
2017-Feb-20 06:33N 47°12' W 001°37'0 0.0
2017-Feb-20 05:33N 47°12' W 001°37'0 0.0
2017-Feb-20 04:33N 47°12' W 001°37'0 0.0
2017-Feb-20 03:33N 47°12' W 001°37'0 0.0
2017-Feb-20 02:33N 47°12' W 001°37'0 0.0
2017-Feb-20 01:33N 47°12' W 001°37'0 0.0
2017-Feb-20 00:33N 47°12' W 001°37'0 0.0
2017-Feb-19 23:33N 47°12' W 001°37'0 0.0
2017-Feb-19 22:33N 47°12' W 001°37'0 0.0
2017-Feb-19 21:33N 47°12' W 001°37'0 0.0
2017-Feb-19 20:33N 47°12' W 001°37'0 0.0
2017-Feb-19 19:33N 47°12' W 001°37'0 0.0
2017-Feb-19 18:33N 47°12' W 001°37'0 0.0
2017-Feb-19 17:33N 47°12' W 001°37'0 0.0
2017-Feb-19 16:33N 47°12' W 001°37'0 0.0
2017-Feb-19 15:33N 47°12' W 001°37'0 0.0
2017-Feb-19 14:33N 47°12' W 001°37'0 0.0
2017-Feb-19 13:33N 47°12' W 001°37'0 0.0
2017-Feb-19 12:33N 47°12' W 001°37'0 0.0
2017-Feb-19 11:33N 47°12' W 001°37'0 0.0
2017-Feb-19 10:33N 47°12' W 001°37'0 0.0
2017-Feb-19 09:33N 47°12' W 001°37'0 0.0
2017-Feb-19 08:33N 47°12' W 001°37'0 0.0
2017-Feb-19 07:33N 47°12' W 001°37'0 0.0
2017-Feb-19 06:33N 47°12' W 001°37'0 0.0
2017-Feb-19 05:33N 47°12' W 001°37'0 0.0
2017-Feb-19 04:33N 47°12' W 001°37'0 0.0
2017-Feb-19 03:33N 47°12' W 001°37'0 0.0
2017-Feb-19 02:33N 47°12' W 001°37'0 0.0
2017-Feb-19 01:33N 47°12' W 001°37'0 0.0
2017-Feb-19 00:33N 47°12' W 001°37'0 0.0
2017-Feb-18 23:33N 47°12' W 001°37'0 0.0
2017-Feb-18 22:33N 47°12' W 001°37'0 0.0
2017-Feb-18 21:33N 47°12' W 001°37'1 0.7
2017-Feb-18 20:33N 47°12' W 001°38'0 0.1
2017-Feb-18 19:33N 47°12' W 001°38'10 9.7
2017-Feb-18 18:33N 47°15' W 001°51'1111.2
2017-Feb-18 17:33N 47°18' W 002°07'1111.4
2017-Feb-18 16:33N 47°10' W 002°19'5 4.9
2017-Feb-18 15:29N 47°05' W 002°21'0 0.1
2017-Feb-18 14:27N 47°05' W 002°22'0 0.2
2017-Feb-18 13:33N 47°05' W 002°22'0 0.2
2017-Feb-18 12:33N 47°05' W 002°22'3 3.4
2017-Feb-18 11:33N 47°08' W 002°20'1212.1
2017-Feb-18 10:33N 47°18' W 002°09'1212.4
2017-Feb-18 09:33N 47°15' W 001°51'10 9.8
2017-Feb-18 08:33N 47°12' W 001°38'0 0.0
2017-Feb-18 07:33N 47°12' W 001°38'3 2.6
2017-Feb-18 06:33N 47°12' W 001°42'1111.0
2017-Feb-18 05:33N 47°17' W 001°56'1110.7
2017-Feb-18 04:33N 47°16' W 002°12'1111.6
2017-Feb-18 03:33N 47°07' W 002°22'1 0.8
2017-Feb-18 02:33N 47°06' W 002°22'0 0.1
2017-Feb-18 01:33N 47°06' W 002°22'2 1.9
2017-Feb-18 00:33N 47°08' W 002°21'9 8.7
2017-Feb-17 23:33N 47°15' W 002°14'1010.1
2017-Feb-17 22:33N 47°17' W 001°59'1111.4
2017-Feb-17 21:33N 47°12' W 001°44'4 4.2
2017-Feb-17 20:33N 47°12' W 001°38'0 0.0
2017-Feb-17 19:33N 47°12' W 001°38'6 6.5
2017-Feb-17 18:33N 47°13' W 001°47'1010.2
2017-Feb-17 17:33N 47°17' W 002°01'1111.4
2017-Feb-17 16:34N 47°13' W 002°16'9 9.2
2017-Feb-17 15:33N 47°05' W 002°21'0 0.0
2017-Feb-17 14:33N 47°05' W 002°21'0 0.1
2017-Feb-17 13:33N 47°05' W 002°21'0 0.1
2017-Feb-17 12:33N 47°05' W 002°21'0 0.1
2017-Feb-17 11:33N 47°05' W 002°22'7 6.7
2017-Feb-17 10:33N 47°11' W 002°18'1111.0
2017-Feb-17 09:33N 47°18' W 002°05'1211.5
2017-Feb-17 08:33N 47°14' W 001°50'8 8.3
2017-Feb-17 07:33N 47°12' W 001°38'0 0.0
2017-Feb-17 06:33N 47°12' W 001°38'0 0.0
2017-Feb-17 05:33N 47°12' W 001°38'0 0.0
2017-Feb-17 04:33N 47°12' W 001°38'0 0.0
2017-Feb-17 03:33N 47°12' W 001°38'0 0.0
2017-Feb-17 02:33N 47°12' W 001°38'0 0.0
2017-Feb-17 01:33N 47°12' W 001°38'0 0.0
2017-Feb-17 00:33N 47°12' W 001°38'0 0.0
2017-Feb-16 23:33N 47°12' W 001°38'0 0.0
2017-Feb-16 22:33N 47°12' W 001°38'0 0.0
2017-Feb-16 21:33N 47°12' W 001°38'0 0.0
2017-Feb-16 20:33N 47°12' W 001°38'0 0.0
2017-Feb-16 19:33N 47°12' W 001°38'0 0.1
2017-Feb-16 18:33N 47°12' W 001°38'8 8.4
2017-Feb-16 17:33N 47°14' W 001°50'1211.9
2017-Feb-16 16:33N 47°18' W 002°06'1312.5
2017-Feb-16 15:33N 47°09' W 002°19'4 4.5
2017-Feb-16 14:33N 47°05' W 002°22'0 0.1
2017-Feb-16 13:33N 47°05' W 002°22'0 0.1
2017-Feb-16 12:33N 47°05' W 002°22'0 0.0
2017-Feb-16 11:33N 47°05' W 002°22'  
Track history (hours):
 
Tides and Currents Weather Stations Pressure Air Temp Water Temp Dewpoint Dewpoint Depression Visibility Wind Speed Wind Dir Waves Ship Positions

St Pierre

Last reported at 2017-Feb-26 10:34 UTC. Time now 2017-Feb-26 10:34 UTC.
Position N 47°12' W 001°37'.

Length 84 m; draft 4.5 m.

Type: Cargo ship. MMSI: 228024800.

Date/timePositionNaut miles runAvg speedWind from/ knotsBaromVisibWave heightAir tempDewpointWater temp
2017-Feb-26 10:34N 47°12' W 001°37'0 0.0
2017-Feb-26 09:34N 47°12' W 001°37'0 0.0
2017-Feb-26 08:33N 47°12' W 001°37'0 0.0
2017-Feb-26 07:33N 47°12' W 001°37'0 0.0
2017-Feb-26 06:34N 47°12' W 001°37'0 0.0
2017-Feb-26 05:33N 47°12' W 001°37'0 0.0
2017-Feb-26 04:33N 47°12' W 001°37'0 0.0
2017-Feb-26 03:32N 47°12' W 001°37'0 0.0
2017-Feb-26 02:34N 47°12' W 001°37'0 0.0
2017-Feb-26 01:34N 47°12' W 001°37'0 0.0
2017-Feb-26 00:34N 47°12' W 001°37'0 0.0
2017-Feb-25 23:34N 47°12' W 001°37'0 0.0
2017-Feb-25 22:33N 47°12' W 001°37'0 0.0
2017-Feb-25 21:34N 47°12' W 001°37'0 0.0
2017-Feb-25 20:34N 47°12' W 001°37'0 0.0
2017-Feb-25 19:33N 47°12' W 001°37'1 0.8
2017-Feb-25 18:34N 47°12' W 001°38'0 0.0
2017-Feb-25 17:33N 47°12' W 001°38'0 0.1
2017-Feb-25 16:33N 47°12' W 001°38'1010.2
2017-Feb-25 15:34N 47°16' W 001°52'1111.4
2017-Feb-25 14:34N 47°18' W 002°08'1212.4
2017-Feb-25 13:33N 47°08' W 002°20'4 3.7
2017-Feb-25 12:33N 47°05' W 002°21'0 0.4
2017-Feb-25 11:33N 47°05' W 002°22'0 0.4
2017-Feb-25 10:33N 47°05' W 002°21'0 0.3
2017-Feb-25 09:33N 47°05' W 002°22'8 8.5
2017-Feb-25 08:33N 47°13' W 002°17'1312.7
2017-Feb-25 07:34N 47°17' W 001°59'1413.8
2017-Feb-25 06:33N 47°12' W 001°40'2 1.8
2017-Feb-25 05:33N 47°12' W 001°38'0 0.0
2017-Feb-25 04:33N 47°12' W 001°38'0 0.0
2017-Feb-25 03:33N 47°12' W 001°38'8 8.2
2017-Feb-25 02:33N 47°14' W 001°50'1010.6
2017-Feb-25 01:33N 47°18' W 002°04'1211.6
2017-Feb-25 00:33N 47°11' W 002°18'7 6.7
2017-Feb-24 23:33N 47°06' W 002°22'0 0.3
2017-Feb-24 22:33N 47°06' W 002°22'4 3.9
2017-Feb-24 21:33N 47°07' W 002°28'1312.7
2017-Feb-24 20:33N 47°14' W 002°43'1313.1
2017-Feb-24 19:33N 47°20' W 002°60'1212.4
2017-Feb-24 18:33N 47°29' W 003°13'1313.4
2017-Feb-24 17:33N 47°41' W 003°22'4 4.4
2017-Feb-24 16:33N 47°45' W 003°19'0 0.0
2017-Feb-24 15:33N 47°45' W 003°19'0 0.0
2017-Feb-24 14:33N 47°45' W 003°19'3 3.3
2017-Feb-24 13:33N 47°42' W 003°22'3 2.6
2017-Feb-24 12:33N 47°40' W 003°25'0 0.0
2017-Feb-24 11:33N 47°40' W 003°25'0 0.0
2017-Feb-24 10:33N 47°40' W 003°25'0 0.0
2017-Feb-24 09:33N 47°40' W 003°25'0 0.0
2017-Feb-24 08:33N 47°40' W 003°25'0 0.0
2017-Feb-24 07:33N 47°40' W 003°25'6 6.4
2017-Feb-24 06:33N 47°35' W 003°19'10 9.5
2017-Feb-24 05:33N 47°27' W 003°12'9 9.4
2017-Feb-24 04:33N 47°21' W 003°02'9 8.8
2017-Feb-24 03:33N 47°17' W 002°50'9 8.5
2017-Feb-24 02:33N 47°12' W 002°39'8 8.4
2017-Feb-24 01:33N 47°08' W 002°29'6 5.6
2017-Feb-24 00:33N 47°05' W 002°22'0 0.2
2017-Feb-23 23:33N 47°05' W 002°22'0 0.2
2017-Feb-23 22:33N 47°05' W 002°21'0 0.0
2017-Feb-23 21:33N 47°05' W 002°21'1 0.9
2017-Feb-23 20:33N 47°06' W 002°22'1110.8
2017-Feb-23 19:33N 47°15' W 002°14'1110.9
2017-Feb-23 18:33N 47°17' W 001°58'15 4.8
2017-Feb-23 15:31N 47°12' W 001°38'4 3.7
2017-Feb-23 14:33N 47°12' W 001°43'1010.2
2017-Feb-23 13:33N 47°17' W 001°56'1110.7
2017-Feb-23 12:33N 47°16' W 002°12'1212.2
2017-Feb-23 11:33N 47°05' W 002°21'0 0.4
2017-Feb-23 10:31N 47°05' W 002°22'0 0.1
2017-Feb-23 09:34N 47°05' W 002°22'1 0.6
2017-Feb-23 08:33N 47°05' W 002°21'1 0.6
2017-Feb-23 07:33N 47°05' W 002°22'1211.7
2017-Feb-23 06:33N 47°15' W 002°13'1211.8
2017-Feb-23 05:33N 47°17' W 001°56'1312.7
2017-Feb-23 04:33N 47°11' W 001°39'1 0.6
2017-Feb-23 03:33N 47°12' W 001°38'0 0.0
2017-Feb-23 02:33N 47°12' W 001°38'5 4.8
2017-Feb-23 01:33N 47°12' W 001°45'1110.8
2017-Feb-23 00:33N 47°17' W 001°59'1110.7
2017-Feb-22 23:33N 47°15' W 002°14'1110.8
2017-Feb-22 22:33N 47°05' W 002°22'0 0.3
2017-Feb-22 21:33N 47°05' W 002°21'0 0.3
2017-Feb-22 20:33N 47°05' W 002°21'0 0.2
2017-Feb-22 19:33N 47°05' W 002°21'0 0.1
2017-Feb-22 18:33N 47°05' W 002°21'7 7.3
2017-Feb-22 17:33N 47°12' W 002°18'1110.7
2017-Feb-22 16:33N 47°18' W 002°05'1211.5
2017-Feb-22 15:33N 47°14' W 001°50'9 9.0
2017-Feb-22 14:34N 47°12' W 001°37'0 0.0
2017-Feb-22 13:33N 47°12' W 001°37'0 0.0
2017-Feb-22 12:33N 47°12' W 001°37'0 0.0
2017-Feb-22 11:33N 47°12' W 001°37'0 0.0
2017-Feb-22 10:33N 47°12' W 001°37'0 0.0
2017-Feb-22 09:33N 47°12' W 001°37'0 0.0
2017-Feb-22 08:33N 47°12' W 001°37'0 0.0
2017-Feb-22 07:33N 47°12' W 001°37'0 0.0
2017-Feb-22 06:33N 47°12' W 001°37'0 0.0
2017-Feb-22 05:33N 47°12' W 001°37'0 0.0
2017-Feb-22 04:33N 47°12' W 001°37'0 0.0
2017-Feb-22 03:33N 47°12' W 001°37'0 0.0
2017-Feb-22 02:33N 47°12' W 001°37'0 0.0
2017-Feb-22 01:33N 47°12' W 001°37'0 0.0
2017-Feb-22 00:33N 47°12' W 001°37'0 0.0
2017-Feb-21 23:33N 47°12' W 001°37'0 0.0
2017-Feb-21 22:33N 47°12' W 001°37'0 0.0
2017-Feb-21 21:33N 47°12' W 001°37'0 0.0
2017-Feb-21 20:33N 47°12' W 001°37'0 0.0
2017-Feb-21 19:33N 47°12' W 001°37'0 0.0
2017-Feb-21 18:33N 47°12' W 001°37'0 0.0
2017-Feb-21 17:33N 47°12' W 001°37'0 0.0
2017-Feb-21 16:33N 47°12' W 001°37'0 0.0
2017-Feb-21 15:33N 47°12' W 001°37'0 0.0
2017-Feb-21 14:33N 47°12' W 001°37'0 0.0
2017-Feb-21 13:33N 47°12' W 001°37'0 0.0
2017-Feb-21 12:33N 47°12' W 001°37'0 0.0
2017-Feb-21 11:33N 47°12' W 001°37'0 0.0
2017-Feb-21 10:33N 47°12' W 001°37'0 0.0
2017-Feb-21 09:33N 47°12' W 001°37'0 0.0
2017-Feb-21 08:33N 47°12' W 001°37'0 0.0
2017-Feb-21 07:33N 47°12' W 001°37'0 0.0
2017-Feb-21 06:33N 47°12' W 001°37'0 0.0
2017-Feb-21 05:33N 47°12' W 001°37'0 0.0
2017-Feb-21 04:33N 47°12' W 001°37'0 0.0
2017-Feb-21 03:33N 47°12' W 001°37'0 0.0
2017-Feb-21 02:33N 47°12' W 001°37'0 0.0
2017-Feb-21 01:33N 47°12' W 001°37'0 0.0
2017-Feb-21 00:33N 47°12' W 001°37'0 0.0
2017-Feb-20 23:33N 47°12' W 001°37'0 0.0
2017-Feb-20 22:33N 47°12' W 001°37'0 0.0
2017-Feb-20 21:33N 47°12' W 001°37'0 0.0
2017-Feb-20 20:33N 47°12' W 001°37'0 0.0
2017-Feb-20 19:33N 47°12' W 001°37'0 0.0
2017-Feb-20 18:33N 47°12' W 001°37'0 0.0
2017-Feb-20 17:33N 47°12' W 001°37'0 0.0
2017-Feb-20 16:33N 47°12' W 001°37'0 0.0
2017-Feb-20 15:33N 47°12' W 001°37'0 0.0
2017-Feb-20 14:33N 47°12' W 001°37'0 0.0
2017-Feb-20 13:33N 47°12' W 001°37'0 0.0
2017-Feb-20 12:33N 47°12' W 001°37'0 0.0
2017-Feb-20 11:33N 47°12' W 001°37'0 0.0
2017-Feb-20 10:33N 47°12' W 001°37'0 0.0
2017-Feb-20 09:33N 47°12' W 001°37'0 0.0
2017-Feb-20 08:33N 47°12' W 001°37'0 0.0
2017-Feb-20 07:33N 47°12' W 001°37'0 0.0
2017-Feb-20 06:33N 47°12' W 001°37'0 0.0
2017-Feb-20 05:33N 47°12' W 001°37'0 0.0
2017-Feb-20 04:33N 47°12' W 001°37'0 0.0
2017-Feb-20 03:33N 47°12' W 001°37'0 0.0
2017-Feb-20 02:33N 47°12' W 001°37'0 0.0
2017-Feb-20 01:33N 47°12' W 001°37'0 0.0
2017-Feb-20 00:33N 47°12' W 001°37'0 0.0
2017-Feb-19 23:33N 47°12' W 001°37'0 0.0
2017-Feb-19 22:33N 47°12' W 001°37'0 0.0
2017-Feb-19 21:33N 47°12' W 001°37'0 0.0
2017-Feb-19 20:33N 47°12' W 001°37'0 0.0
2017-Feb-19 19:33N 47°12' W 001°37'0 0.0
2017-Feb-19 18:33N 47°12' W 001°37'0 0.0
2017-Feb-19 17:33N 47°12' W 001°37'0 0.0
2017-Feb-19 16:33N 47°12' W 001°37'0 0.0
2017-Feb-19 15:33N 47°12' W 001°37'0 0.0
2017-Feb-19 14:33N 47°12' W 001°37'0 0.0
2017-Feb-19 13:33N 47°12' W 001°37'0 0.0
2017-Feb-19 12:33N 47°12' W 001°37'0 0.0
2017-Feb-19 11:33N 47°12' W 001°37'0 0.0
2017-Feb-19 10:33N 47°12' W 001°37'0 0.0
2017-Feb-19 09:33N 47°12' W 001°37'0 0.0
2017-Feb-19 08:33N 47°12' W 001°37'0 0.0
2017-Feb-19 07:33N 47°12' W 001°37'0 0.0
2017-Feb-19 06:33N 47°12' W 001°37'0 0.0
2017-Feb-19 05:33N 47°12' W 001°37'0 0.0
2017-Feb-19 04:33N 47°12' W 001°37'0 0.0
2017-Feb-19 03:33N 47°12' W 001°37'0 0.0
2017-Feb-19 02:33N 47°12' W 001°37'0 0.0
2017-Feb-19 01:33N 47°12' W 001°37'0 0.0
2017-Feb-19 00:33N 47°12' W 001°37'0 0.0
2017-Feb-18 23:33N 47°12' W 001°37'0 0.0
2017-Feb-18 22:33N 47°12' W 001°37'0 0.0
2017-Feb-18 21:33N 47°12' W 001°37'1 0.7
2017-Feb-18 20:33N 47°12' W 001°38'0 0.1
2017-Feb-18 19:33N 47°12' W 001°38'10 9.7
2017-Feb-18 18:33N 47°15' W 001°51'1111.2
2017-Feb-18 17:33N 47°18' W 002°07'1111.4
2017-Feb-18 16:33N 47°10' W 002°19'5 4.9
2017-Feb-18 15:29N 47°05' W 002°21'0 0.1
2017-Feb-18 14:27N 47°05' W 002°22'0 0.2
2017-Feb-18 13:33N 47°05' W 002°22'0 0.2
2017-Feb-18 12:33N 47°05' W 002°22'3 3.4
2017-Feb-18 11:33N 47°08' W 002°20'1212.1
2017-Feb-18 10:33N 47°18' W 002°09'1212.4
2017-Feb-18 09:33N 47°15' W 001°51'10 9.8
2017-Feb-18 08:33N 47°12' W 001°38'0 0.0
2017-Feb-18 07:33N 47°12' W 001°38'3 2.6
2017-Feb-18 06:33N 47°12' W 001°42'1111.0
2017-Feb-18 05:33N 47°17' W 001°56'1110.7
2017-Feb-18 04:33N 47°16' W 002°12'1111.6
2017-Feb-18 03:33N 47°07' W 002°22'1 0.8
2017-Feb-18 02:33N 47°06' W 002°22'0 0.1
2017-Feb-18 01:33N 47°06' W 002°22'2 1.9
2017-Feb-18 00:33N 47°08' W 002°21'9 8.7
2017-Feb-17 23:33N 47°15' W 002°14'1010.1
2017-Feb-17 22:33N 47°17' W 001°59'1111.4
2017-Feb-17 21:33N 47°12' W 001°44'4 4.2
2017-Feb-17 20:33N 47°12' W 001°38'0 0.0
2017-Feb-17 19:33N 47°12' W 001°38'6 6.5
2017-Feb-17 18:33N 47°13' W 001°47'1010.2
2017-Feb-17 17:33N 47°17' W 002°01'1111.4
2017-Feb-17 16:34N 47°13' W 002°16'9 9.2
2017-Feb-17 15:33N 47°05' W 002°21'0 0.0
2017-Feb-17 14:33N 47°05' W 002°21'0 0.1
2017-Feb-17 13:33N 47°05' W 002°21'0 0.1
2017-Feb-17 12:33N 47°05' W 002°21'0 0.1
2017-Feb-17 11:33N 47°05' W 002°22'7 6.7
2017-Feb-17 10:33N 47°11' W 002°18'1111.0
2017-Feb-17 09:33N 47°18' W 002°05'1211.5
2017-Feb-17 08:33N 47°14' W 001°50'8 8.3
2017-Feb-17 07:33N 47°12' W 001°38'0 0.0
2017-Feb-17 06:33N 47°12' W 001°38'0 0.0
2017-Feb-17 05:33N 47°12' W 001°38'0 0.0
2017-Feb-17 04:33N 47°12' W 001°38'0 0.0
2017-Feb-17 03:33N 47°12' W 001°38'0 0.0
2017-Feb-17 02:33N 47°12' W 001°38'0 0.0
2017-Feb-17 01:33N 47°12' W 001°38'0 0.0
2017-Feb-17 00:33N 47°12' W 001°38'0 0.0
2017-Feb-16 23:33N 47°12' W 001°38'0 0.0
2017-Feb-16 22:33N 47°12' W 001°38'0 0.0
2017-Feb-16 21:33N 47°12' W 001°38'0 0.0
2017-Feb-16 20:33N 47°12' W 001°38'0 0.0
2017-Feb-16 19:33N 47°12' W 001°38'0 0.1
2017-Feb-16 18:33N 47°12' W 001°38'8 8.4
2017-Feb-16 17:33N 47°14' W 001°50'1211.9
2017-Feb-16 16:33N 47°18' W 002°06'1312.5
2017-Feb-16 15:33N 47°09' W 002°19'4 4.5
2017-Feb-16 14:33N 47°05' W 002°22'0 0.1
2017-Feb-16 13:33N 47°05' W 002°22'0 0.1
2017-Feb-16 12:33N 47°05' W 002°22'0 0.0
2017-Feb-16 11:33N 47°05' W 002°22'  

Dump ship's entire track history